createdAt,value
2017-05-25T00:00:31.381Z,19.11
2017-05-25T00:01:11.875Z,19.14
2017-05-25T00:01:52.386Z,19.08
2017-05-25T00:02:32.864Z,19.07
2017-05-25T00:03:13.365Z,19.04
2017-05-25T00:03:53.866Z,18.94
2017-05-25T00:04:34.360Z,18.82
2017-05-25T00:05:14.859Z,18.82
2017-05-25T00:05:55.341Z,18.81
2017-05-25T00:06:35.830Z,18.72
2017-05-25T00:07:16.328Z,18.82
2017-05-25T00:07:56.820Z,18.81
2017-05-25T00:08:37.313Z,18.81
2017-05-25T00:09:17.809Z,18.82
2017-05-25T00:09:58.300Z,18.75
2017-05-25T00:10:38.789Z,18.69
2017-05-25T00:11:19.285Z,18.73
2017-05-25T00:11:59.781Z,18.78
2017-05-25T00:12:40.271Z,18.81
2017-05-25T00:13:20.768Z,18.75
2017-05-25T00:14:01.259Z,18.85
2017-05-25T00:14:41.760Z,18.75
2017-05-25T00:15:22.270Z,18.8
2017-05-25T00:16:02.760Z,18.78
2017-05-25T00:16:43.256Z,18.65
2017-05-25T00:17:23.745Z,18.65
2017-05-25T00:18:04.244Z,18.55
2017-05-25T00:18:44.734Z,18.48
2017-05-25T00:19:25.236Z,18.55
2017-05-25T00:20:05.715Z,18.51
2017-05-25T00:20:46.225Z,18.47
2017-05-25T00:21:27.643Z,18.5
2017-05-25T00:22:08.114Z,18.52
2017-05-25T00:22:48.643Z,18.63
2017-05-25T00:23:29.892Z,18.55
2017-05-25T00:24:10.389Z,18.62
2017-05-25T00:24:50.880Z,18.69
2017-05-25T00:25:31.376Z,18.76
2017-05-25T00:26:11.870Z,18.75
2017-05-25T00:26:52.356Z,18.76
2017-05-25T00:27:32.850Z,18.75
2017-05-25T00:28:13.348Z,18.81
2017-05-25T00:28:53.839Z,18.81
2017-05-25T00:29:34.351Z,18.76
2017-05-25T00:30:14.852Z,18.8
2017-05-25T00:30:55.339Z,18.81
2017-05-25T00:31:35.829Z,18.6
2017-05-25T00:32:16.330Z,18.62
2017-05-25T00:32:56.817Z,18.63
2017-05-25T00:33:37.308Z,18.62
2017-05-25T00:34:17.800Z,18.55
2017-05-25T00:34:58.276Z,18.48
2017-05-25T00:35:39.683Z,18.47
2017-05-25T00:36:20.165Z,18.45
2017-05-25T00:37:00.662Z,18.37
2017-05-25T00:37:41.152Z,18.42
2017-05-25T00:38:21.640Z,18.44
2017-05-25T00:39:02.800Z,18.45
2017-05-25T00:39:43.286Z,18.55
2017-05-25T00:40:23.766Z,18.55
2017-05-25T00:41:04.263Z,18.48
2017-05-25T00:41:45.301Z,18.66
2017-05-25T00:42:25.799Z,18.54
2017-05-25T00:43:06.285Z,18.52
2017-05-25T00:43:46.778Z,18.65
2017-05-25T00:44:27.299Z,18.51
2017-05-25T00:45:07.795Z,18.52
2017-05-25T00:45:48.298Z,18.54
2017-05-25T00:46:28.808Z,18.36
2017-05-25T00:47:09.309Z,18.2
2017-05-25T00:47:49.800Z,18.25
2017-05-25T00:48:30.292Z,18.25
2017-05-25T00:49:10.790Z,18.14
2017-05-25T00:49:51.268Z,18.05
2017-05-25T00:50:31.761Z,18
2017-05-25T00:51:12.265Z,18.02
2017-05-25T00:51:52.758Z,18.11
2017-05-25T00:52:33.824Z,18.07
2017-05-25T00:53:15.312Z,18.05
2017-05-25T00:53:55.799Z,18.03
2017-05-25T00:54:36.297Z,18.03
2017-05-25T00:55:16.781Z,18.15
2017-05-25T00:55:57.276Z,18.14
2017-05-25T00:56:37.780Z,18.07
2017-05-25T00:57:18.258Z,18.05
2017-05-25T00:57:58.744Z,17.95
2017-05-25T00:58:39.218Z,17.99
2017-05-25T00:59:19.709Z,17.89
2017-05-25T01:00:00.198Z,17.89
2017-05-25T01:00:41.680Z,17.95
2017-05-25T01:01:22.167Z,17.86
2017-05-25T01:02:02.664Z,17.78
2017-05-25T01:02:43.802Z,17.82
2017-05-25T01:03:24.304Z,17.84
2017-05-25T01:04:04.781Z,17.68
2017-05-25T01:04:45.277Z,17.71
2017-05-25T01:05:26.599Z,17.59
2017-05-25T01:06:07.075Z,17.51
2017-05-25T01:06:47.571Z,17.49
2017-05-25T01:07:28.083Z,17.55
2017-05-25T01:08:08.558Z,17.4
2017-05-25T01:08:49.049Z,17.43
2017-05-25T01:09:29.539Z,17.52
2017-05-25T01:10:10.043Z,17.46
2017-05-25T01:10:50.533Z,17.44
2017-05-25T01:11:31.909Z,17.46
2017-05-25T01:12:12.411Z,17.43
2017-05-25T01:12:52.896Z,17.51
2017-05-25T01:13:33.912Z,17.43
2017-05-25T01:14:14.401Z,17.4
2017-05-25T01:14:54.898Z,17.48
2017-05-25T01:15:35.388Z,17.48
2017-05-25T01:16:15.874Z,17.48
2017-05-25T01:16:56.370Z,17.36
2017-05-25T01:17:36.863Z,17.22
2017-05-25T01:18:17.355Z,17.23
2017-05-25T01:18:57.863Z,17.12
2017-05-25T01:19:38.352Z,17.11
2017-05-25T01:20:18.843Z,17.26
2017-05-25T01:20:59.354Z,17.16
2017-05-25T01:21:39.853Z,17.16
2017-05-25T01:22:20.339Z,17.12
2017-05-25T01:23:00.832Z,17.06
2017-05-25T01:23:41.327Z,17.14
2017-05-25T01:24:21.815Z,17.19
2017-05-25T01:25:02.307Z,17.16
2017-05-25T01:25:42.802Z,17.26
2017-05-25T01:26:23.281Z,17.23
2017-05-25T01:27:04.682Z,17.21
2017-05-25T01:27:45.915Z,17.28
2017-05-25T01:28:26.404Z,17.12
2017-05-25T01:29:06.899Z,17.18
2017-05-25T01:29:47.399Z,17.23
2017-05-25T01:30:27.879Z,17.25
2017-05-25T01:31:08.376Z,17.23
2017-05-25T01:31:48.873Z,17.25
2017-05-25T01:32:29.362Z,17.07
2017-05-25T01:33:09.846Z,17.11
2017-05-25T01:33:50.338Z,17.07
2017-05-25T01:34:30.830Z,16.89
2017-05-25T01:35:11.328Z,16.85
2017-05-25T01:35:51.837Z,16.75
2017-05-25T01:36:33.187Z,16.75
2017-05-25T01:37:13.679Z,16.66
2017-05-25T01:37:54.172Z,16.82
2017-05-25T01:38:34.717Z,16.75
2017-05-25T01:39:16.101Z,16.82
2017-05-25T01:39:56.595Z,16.85
2017-05-25T01:40:37.604Z,16.94
2017-05-25T01:41:18.090Z,16.86
2017-05-25T01:41:58.574Z,16.85
2017-05-25T01:42:39.087Z,16.81
2017-05-25T01:43:19.567Z,16.81
2017-05-25T01:44:00.056Z,16.71
2017-05-25T01:44:40.552Z,16.64
2017-05-25T01:45:21.041Z,16.64
2017-05-25T01:46:01.533Z,16.57
2017-05-25T01:46:42.026Z,16.48
2017-05-25T01:47:22.496Z,16.43
2017-05-25T01:48:02.980Z,16.42
2017-05-25T01:48:43.471Z,16.35
2017-05-25T01:49:23.971Z,16.27
2017-05-25T01:50:04.446Z,16.23
2017-05-25T01:50:44.940Z,16.24
2017-05-25T01:51:25.443Z,16.27
2017-05-25T01:52:05.935Z,16.3
2017-05-25T01:52:46.467Z,16.33
2017-05-25T01:53:26.953Z,16.35
2017-05-25T01:54:07.444Z,16.46
2017-05-25T01:54:47.941Z,16.35
2017-05-25T01:55:28.402Z,16.38
2017-05-25T01:56:08.902Z,16.31
2017-05-25T01:56:49.387Z,16.3
2017-05-25T01:57:29.892Z,16.38
2017-05-25T01:58:10.389Z,16.34
2017-05-25T01:58:50.876Z,16.41
2017-05-25T01:59:32.318Z,16.42
2017-05-25T02:00:12.806Z,16.43
2017-05-25T02:00:53.305Z,16.46
2017-05-25T02:01:33.782Z,16.52
2017-05-25T02:02:14.278Z,16.61
2017-05-25T02:02:54.777Z,16.64
2017-05-25T02:03:35.269Z,16.63
2017-05-25T02:04:15.752Z,16.58
2017-05-25T02:04:56.242Z,16.57
2017-05-25T02:05:36.727Z,16.57
2017-05-25T02:06:17.221Z,16.49
2017-05-25T02:06:57.717Z,16.63
2017-05-25T02:07:38.207Z,16.85
2017-05-25T02:08:18.673Z,16.91
2017-05-25T02:08:59.306Z,16.94
2017-05-25T02:09:39.737Z,16.97
2017-05-25T02:10:20.280Z,16.97
2017-05-25T02:11:01.615Z,17.01
2017-05-25T02:11:42.108Z,17.08
2017-05-25T02:12:22.595Z,17.12
2017-05-25T02:13:03.102Z,17.15
2017-05-25T02:13:43.763Z,17.23
2017-05-25T02:14:24.935Z,17.26
2017-05-25T02:15:05.434Z,17.26
2017-05-25T02:15:45.934Z,17.34
2017-05-25T02:16:26.419Z,17.22
2017-05-25T02:17:06.902Z,17.26
2017-05-25T02:17:47.390Z,17.36
2017-05-25T02:18:27.882Z,17.38
2017-05-25T02:19:09.192Z,17.28
2017-05-25T02:19:50.632Z,17.23
2017-05-25T02:20:31.109Z,17.12
2017-05-25T02:21:11.600Z,17.08
2017-05-25T02:21:52.100Z,16.93
2017-05-25T02:22:32.584Z,16.97
2017-05-25T02:23:13.096Z,16.97
2017-05-25T02:23:53.568Z,16.88
2017-05-25T02:24:34.064Z,17.03
2017-05-25T02:25:14.564Z,16.86
2017-05-25T02:25:55.056Z,16.85
2017-05-25T02:26:35.550Z,16.82
2017-05-25T02:27:16.935Z,16.83
2017-05-25T02:27:57.936Z,16.86
2017-05-25T02:28:38.434Z,16.79
2017-05-25T02:29:18.915Z,16.83
2017-05-25T02:30:56.251Z,16.91
2017-05-25T02:31:36.737Z,16.79
2017-05-25T02:32:17.234Z,16.7
2017-05-25T02:32:57.727Z,16.6
2017-05-25T02:33:38.226Z,16.56
2017-05-25T02:34:18.719Z,16.35
2017-05-25T02:34:59.212Z,16.27
2017-05-25T02:35:39.708Z,16.27
2017-05-25T02:36:20.195Z,16.14
2017-05-25T02:37:00.690Z,16.09
2017-05-25T02:37:41.185Z,15.94
2017-05-25T02:38:21.673Z,15.86
2017-05-25T02:39:02.167Z,15.83
2017-05-25T02:39:42.655Z,15.76
2017-05-25T02:40:23.142Z,15.68
2017-05-25T02:41:03.645Z,15.62
2017-05-25T02:41:44.130Z,15.6
2017-05-25T02:42:24.622Z,15.62
2017-05-25T02:43:05.123Z,15.5
2017-05-25T02:43:47.140Z,15.54
2017-05-25T02:44:27.631Z,15.49
2017-05-25T02:45:08.131Z,15.57
2017-05-25T02:45:48.624Z,15.62
2017-05-25T02:46:29.110Z,15.67
2017-05-25T02:47:09.606Z,15.67
2017-05-25T02:47:50.085Z,15.83
2017-05-25T02:48:30.592Z,15.75
2017-05-25T02:49:11.088Z,15.62
2017-05-25T02:49:51.583Z,15.65
2017-05-25T02:50:32.089Z,15.62
2017-05-25T02:51:12.580Z,15.64
2017-05-25T02:51:53.080Z,15.68
2017-05-25T02:52:33.560Z,15.64
2017-05-25T02:53:14.052Z,15.6
2017-05-25T02:53:54.528Z,15.64
2017-05-25T02:54:35.022Z,15.59
2017-05-25T02:55:15.528Z,15.51
2017-05-25T02:55:56.017Z,15.49
2017-05-25T02:56:36.509Z,15.46
2017-05-25T02:57:16.998Z,15.53
2017-05-25T02:57:57.492Z,15.54
2017-05-25T02:58:37.976Z,15.65
2017-05-25T02:59:18.474Z,15.49
2017-05-25T02:59:58.971Z,15.5
2017-05-25T03:00:39.459Z,15.44
2017-05-25T03:01:19.948Z,15.47
2017-05-25T03:02:00.443Z,15.62
2017-05-25T03:02:40.932Z,15.5
2017-05-25T03:03:21.428Z,15.35
2017-05-25T03:04:01.898Z,15.38
2017-05-25T03:04:42.400Z,15.31
2017-05-25T03:05:22.908Z,15.27
2017-05-25T03:06:03.402Z,15.23
2017-05-25T03:06:44.809Z,15.39
2017-05-25T03:07:25.296Z,15.38
2017-05-25T03:08:05.791Z,15.27
2017-05-25T03:08:46.282Z,15.23
2017-05-25T03:09:26.764Z,15.32
2017-05-25T03:10:07.259Z,15.31
2017-05-25T03:10:47.764Z,15.2
2017-05-25T03:11:28.257Z,15.31
2017-05-25T03:12:08.747Z,15.21
2017-05-25T03:12:49.726Z,15.25
2017-05-25T03:13:31.155Z,15.19
2017-05-25T03:14:11.642Z,15.19
2017-05-25T03:14:52.142Z,15.25
2017-05-25T03:15:32.622Z,15.16
2017-05-25T03:16:13.105Z,15.17
2017-05-25T03:16:53.612Z,15.2
2017-05-25T03:17:34.067Z,15.2
2017-05-25T03:18:14.547Z,15.16
2017-05-25T03:18:55.033Z,15.29
2017-05-25T03:19:35.534Z,15.19
2017-05-25T03:20:16.028Z,15.34
2017-05-25T03:20:57.454Z,15.35
2017-05-25T03:21:37.920Z,15.21
2017-05-25T03:22:18.420Z,15.31
2017-05-25T03:22:58.908Z,15.31
2017-05-25T03:23:39.414Z,15.36
2017-05-25T03:24:19.897Z,15.32
2017-05-25T03:25:00.386Z,15.32
2017-05-25T03:25:40.893Z,15.35
2017-05-25T03:26:21.375Z,15.38
2017-05-25T03:27:01.865Z,15.36
2017-05-25T03:27:42.358Z,15.38
2017-05-25T03:28:22.851Z,15.35
2017-05-25T03:29:03.342Z,15.36
2017-05-25T03:29:43.835Z,15.34
2017-05-25T03:30:24.328Z,15.46
2017-05-25T03:31:04.815Z,15.47
2017-05-25T03:31:45.310Z,15.39
2017-05-25T03:32:25.805Z,15.39
2017-05-25T03:33:06.293Z,15.25
2017-05-25T03:33:46.798Z,15.23
2017-05-25T03:34:27.279Z,15.17
2017-05-25T03:35:07.778Z,15.21
2017-05-25T03:35:48.270Z,15.28
2017-05-25T03:36:28.758Z,15.21
2017-05-25T03:37:09.255Z,15.11
2017-05-25T03:37:49.752Z,15.28
2017-05-25T03:38:30.236Z,15.16
2017-05-25T03:39:10.726Z,15.19
2017-05-25T03:39:51.225Z,15.21
2017-05-25T03:40:31.716Z,15.23
2017-05-25T03:41:12.206Z,15.09
2017-05-25T03:41:52.676Z,15.1
2017-05-25T03:42:33.165Z,15.1
2017-05-25T03:43:13.657Z,15.16
2017-05-25T03:43:54.143Z,15.09
2017-05-25T03:44:34.647Z,15.02
2017-05-25T03:45:15.123Z,15.07
2017-05-25T03:45:55.620Z,15.02
2017-05-25T03:46:36.113Z,15.02
2017-05-25T03:47:16.606Z,14.98
2017-05-25T03:47:57.101Z,15.01
2017-05-25T03:48:37.594Z,14.86
2017-05-25T03:49:18.082Z,14.86
2017-05-25T03:49:58.570Z,14.86
2017-05-25T03:50:39.067Z,14.91
2017-05-25T03:51:20.249Z,14.94
2017-05-25T03:52:00.732Z,14.96
2017-05-25T03:52:41.228Z,14.91
2017-05-25T03:53:21.722Z,14.84
2017-05-25T03:54:02.213Z,14.86
2017-05-25T03:54:42.703Z,14.73
2017-05-25T03:55:23.196Z,14.83
2017-05-25T03:56:03.672Z,14.99
2017-05-25T03:56:44.163Z,14.99
2017-05-25T03:57:25.169Z,14.95
2017-05-25T03:59:17.706Z,14.86
2017-05-25T03:59:58.177Z,14.84
2017-05-25T04:00:39.187Z,14.96
2017-05-25T04:01:19.670Z,14.98
2017-05-25T04:02:00.160Z,15.07
2017-05-25T04:02:40.645Z,14.96
2017-05-25T04:03:21.135Z,14.98
2017-05-25T04:04:01.637Z,14.94
2017-05-25T04:04:42.134Z,14.88
2017-05-25T04:05:22.616Z,14.89
2017-05-25T04:06:03.114Z,14.84
2017-05-25T04:06:43.619Z,14.86
2017-05-25T04:07:25.591Z,14.83
2017-05-25T04:08:06.105Z,14.83
2017-05-25T04:08:46.604Z,14.88
2017-05-25T04:09:27.095Z,14.84
2017-05-25T04:10:07.574Z,14.8
2017-05-25T04:10:48.068Z,14.83
2017-05-25T04:11:29.490Z,14.88
2017-05-25T04:12:09.977Z,14.72
2017-05-25T04:12:50.469Z,14.77
2017-05-25T04:13:30.970Z,14.73
2017-05-25T04:14:12.259Z,14.8
2017-05-25T04:14:53.499Z,14.83
2017-05-25T04:15:34.000Z,14.72
2017-05-25T04:16:14.490Z,14.7
2017-05-25T04:18:01.947Z,14.69
2017-05-25T04:18:42.989Z,14.62
2017-05-25T04:19:23.478Z,14.62
2017-05-25T04:20:03.951Z,14.64
2017-05-25T04:20:44.455Z,14.7
2017-05-25T04:21:24.956Z,14.65
2017-05-25T04:22:05.444Z,14.64
2017-05-25T04:22:45.923Z,14.68
2017-05-25T04:24:43.558Z,14.81
2017-05-25T04:25:24.019Z,14.91
2017-05-25T04:26:04.506Z,14.91
2017-05-25T04:26:44.998Z,14.84
2017-05-25T04:27:25.497Z,14.84
2017-05-25T04:28:05.997Z,14.84
2017-05-25T04:28:46.477Z,14.86
2017-05-25T04:29:26.945Z,14.77
2017-05-25T04:30:07.430Z,14.75
2017-05-25T04:30:47.920Z,14.7
2017-05-25T04:31:28.411Z,14.77
2017-05-25T04:32:09.529Z,14.69
2017-05-25T04:32:50.013Z,14.65
2017-05-25T04:33:31.343Z,14.6
2017-05-25T04:34:11.835Z,14.62
2017-05-25T04:34:52.317Z,14.73
2017-05-25T04:35:32.810Z,14.73
2017-05-25T04:36:13.299Z,14.68
2017-05-25T04:36:54.528Z,14.81
2017-05-25T04:37:35.609Z,14.84
2017-05-25T04:38:16.100Z,14.88
2017-05-25T04:38:56.587Z,14.92
2017-05-25T04:39:37.058Z,15.06
2017-05-25T04:40:17.541Z,14.99
2017-05-25T04:40:58.036Z,14.99
2017-05-25T04:41:38.535Z,15.06
2017-05-25T04:42:19.020Z,15.03
2017-05-25T04:42:59.511Z,14.98
2017-05-25T04:43:40.009Z,15.14
2017-05-25T04:44:20.500Z,15.03
2017-05-25T04:45:01.011Z,14.98
2017-05-25T04:45:41.496Z,15.01
2017-05-25T04:46:21.981Z,14.96
2017-05-25T04:48:09.447Z,14.99
2017-05-25T04:48:49.926Z,14.98
2017-05-25T04:49:30.411Z,14.98
2017-05-25T04:50:10.891Z,14.99
2017-05-25T04:50:51.396Z,15.09
2017-05-25T04:51:31.880Z,15.17
2017-05-25T04:52:12.391Z,15.28
2017-05-25T04:52:52.850Z,15.43
2017-05-25T04:53:33.331Z,15.57
2017-05-25T04:54:13.823Z,15.68
2017-05-25T04:54:54.314Z,15.76
2017-05-25T04:55:34.798Z,15.89
2017-05-25T04:56:15.298Z,16.07
2017-05-25T04:56:55.772Z,16.09
2017-05-25T04:57:36.259Z,16.3
2017-05-25T04:58:16.759Z,16.14
2017-05-25T04:58:57.259Z,16.27
2017-05-25T04:59:37.760Z,16.33
2017-05-25T05:00:18.246Z,16.46
2017-05-25T05:00:58.734Z,16.49
2017-05-25T05:01:39.230Z,16.68
2017-05-25T05:02:19.703Z,16.83
2017-05-25T05:03:00.190Z,16.97
2017-05-25T05:03:40.676Z,17.06
2017-05-25T05:04:21.169Z,17
2017-05-25T05:05:01.666Z,16.97
2017-05-25T05:05:42.152Z,16.88
2017-05-25T05:06:22.644Z,16.82
2017-05-25T05:07:03.142Z,16.85
2017-05-25T05:07:43.626Z,16.71
2017-05-25T05:08:24.176Z,16.6
2017-05-25T05:10:36.851Z,16.68
2017-05-25T05:11:17.400Z,16.64
2017-05-25T05:11:57.820Z,16.5
2017-05-25T05:12:38.310Z,16.41
2017-05-25T05:13:19.641Z,16.57
2017-05-25T05:14:00.146Z,16.57
2017-05-25T05:14:40.640Z,16.46
2017-05-25T05:15:21.135Z,16.52
2017-05-25T05:16:01.650Z,16.33
2017-05-25T05:16:42.740Z,16.39
2017-05-25T05:17:23.240Z,16.78
2017-05-25T05:18:03.727Z,16.71
2017-05-25T05:18:44.220Z,16.7
2017-05-25T05:19:24.704Z,16.63
2017-05-25T05:20:05.200Z,16.61
2017-05-25T05:20:45.695Z,16.61
2017-05-25T05:21:26.905Z,16.66
2017-05-25T05:22:07.396Z,16.66
2017-05-25T05:22:47.877Z,16.73
2017-05-25T05:23:28.371Z,16.64
2017-05-25T05:24:08.887Z,16.68
2017-05-25T05:24:49.336Z,16.71
2017-05-25T05:25:29.821Z,16.73
2017-05-25T05:26:10.333Z,16.91
2017-05-25T05:26:50.806Z,16.88
2017-05-25T05:27:31.829Z,17.14
2017-05-25T05:28:12.320Z,17.04
2017-05-25T05:28:52.821Z,17.08
2017-05-25T05:29:33.325Z,16.96
2017-05-25T05:30:13.788Z,17.12
2017-05-25T05:30:54.276Z,17.21
2017-05-25T05:31:35.409Z,17.48
2017-05-25T05:32:15.890Z,17.54
2017-05-25T05:32:56.386Z,17.66
2017-05-25T05:33:36.876Z,17.59
2017-05-25T05:34:17.379Z,17.92
2017-05-25T05:34:57.873Z,18.05
2017-05-25T05:35:38.910Z,18
2017-05-25T05:36:19.402Z,18.03
2017-05-25T05:36:59.893Z,18.02
2017-05-25T05:37:40.367Z,18.1
2017-05-25T05:38:20.846Z,17.93
2017-05-25T05:39:01.381Z,17.99
2017-05-25T05:39:41.851Z,17.55
2017-05-25T05:40:23.147Z,17.48
2017-05-25T05:41:03.642Z,17.46
2017-05-25T05:41:44.129Z,17.49
2017-05-25T05:42:24.609Z,17.31
2017-05-25T05:43:05.109Z,17.37
2017-05-25T05:43:45.609Z,17.26
2017-05-25T05:44:26.106Z,17.38
2017-05-25T05:45:06.588Z,17.19
2017-05-25T05:45:47.072Z,17.43
2017-05-25T05:46:27.573Z,17.11
2017-05-25T05:47:08.067Z,17.08
2017-05-25T05:47:48.570Z,17.08
2017-05-25T05:48:29.053Z,17.22
2017-05-25T05:49:09.541Z,17.25
2017-05-25T05:49:50.036Z,17.41
2017-05-25T05:50:30.525Z,17.37
2017-05-25T05:51:11.025Z,17.43
2017-05-25T05:51:51.521Z,17.44
2017-05-25T05:52:32.043Z,17.38
2017-05-25T05:53:13.015Z,17.55
2017-05-25T05:53:56.252Z,17.74
2017-05-25T05:54:36.754Z,17.97
2017-05-25T05:55:17.248Z,17.87
2017-05-25T05:55:57.742Z,17.9
2017-05-25T05:56:38.747Z,17.86
2017-05-25T05:57:19.235Z,17.92
2017-05-25T05:57:59.722Z,17.84
2017-05-25T05:58:41.047Z,17.95
2017-05-25T05:59:21.546Z,17.75
2017-05-25T06:00:02.056Z,17.52
2017-05-25T06:00:42.551Z,17.49
2017-05-25T06:01:23.050Z,17.64
2017-05-25T06:02:03.531Z,17.56
2017-05-25T06:02:44.020Z,17.46
2017-05-25T06:03:24.519Z,17.43
2017-05-25T06:04:05.011Z,17.75
2017-05-25T06:04:45.509Z,17.95
2017-05-25T06:05:25.982Z,18.26
2017-05-25T06:06:06.483Z,18.5
2017-05-25T06:06:46.970Z,18.62
2017-05-25T06:07:27.459Z,18.67
2017-05-25T06:08:07.942Z,18.92
2017-05-25T06:08:48.430Z,19.08
2017-05-25T06:09:29.547Z,18.9
2017-05-25T06:10:10.034Z,18.8
2017-05-25T06:10:50.522Z,18.67
2017-05-25T06:11:31.017Z,18.52
2017-05-25T06:12:12.261Z,18.45
2017-05-25T06:12:52.751Z,18.51
2017-05-25T06:13:33.249Z,18.63
2017-05-25T06:14:13.740Z,18.47
2017-05-25T06:14:54.757Z,18.52
2017-05-25T06:15:35.850Z,18.45
2017-05-25T06:16:16.338Z,18.69
2017-05-25T06:16:56.833Z,18.66
2017-05-25T06:17:37.325Z,18.76
2017-05-25T06:18:17.815Z,18.58
2017-05-25T06:18:58.313Z,18.6
2017-05-25T06:19:38.807Z,18.65
2017-05-25T06:20:19.289Z,18.62
2017-05-25T06:20:59.787Z,18.76
2017-05-25T06:22:58.987Z,18.75
2017-05-25T06:23:39.465Z,18.66
2017-05-25T06:24:19.961Z,18.8
2017-05-25T06:25:00.459Z,18.7
2017-05-25T06:25:40.941Z,18.88
2017-05-25T06:26:21.426Z,18.87
2017-05-25T06:27:01.931Z,18.82
2017-05-25T06:27:42.416Z,18.92
2017-05-25T06:28:22.901Z,18.8
2017-05-25T06:29:04.277Z,18.81
2017-05-25T06:29:45.414Z,18.82
2017-05-25T06:30:25.888Z,18.8
2017-05-25T06:31:06.403Z,18.87
2017-05-25T06:31:46.900Z,18.87
2017-05-25T06:32:27.383Z,18.81
2017-05-25T06:33:07.840Z,18.85
2017-05-25T06:33:48.338Z,18.85
2017-05-25T06:34:28.862Z,18.63
2017-05-25T06:35:09.350Z,18.7
2017-05-25T06:35:49.842Z,18.78
2017-05-25T06:36:30.336Z,18.75
2017-05-25T06:37:10.820Z,18.8
2017-05-25T06:37:51.314Z,18.98
2017-05-25T06:38:31.804Z,18.98
2017-05-25T06:39:12.302Z,19.11
2017-05-25T06:39:53.777Z,19.21
2017-05-25T06:40:34.270Z,19.23
2017-05-25T06:41:14.770Z,19.36
2017-05-25T06:41:55.266Z,19.36
2017-05-25T06:42:35.754Z,19.5
2017-05-25T06:43:16.257Z,19.77
2017-05-25T06:43:56.767Z,19.98
2017-05-25T06:44:37.259Z,20.06
2017-05-25T06:45:17.745Z,20.08
2017-05-25T06:45:58.240Z,20.29
2017-05-25T06:46:38.715Z,19.83
2017-05-25T06:47:19.190Z,19.95
2017-05-25T06:47:59.693Z,20.24
2017-05-25T06:48:40.168Z,20.62
2017-05-25T06:49:20.658Z,20.94
2017-05-25T06:50:01.139Z,21.4
2017-05-25T06:50:41.637Z,21.72
2017-05-25T06:51:22.122Z,21.69
2017-05-25T06:52:02.614Z,21.25
2017-05-25T06:52:43.105Z,21.1
2017-05-25T06:53:24.286Z,21.34
2017-05-25T06:54:04.777Z,21.54
2017-05-25T06:54:45.277Z,21.5
2017-05-25T06:55:25.764Z,21.59
2017-05-25T06:56:06.209Z,21.92
2017-05-25T06:56:46.703Z,22.18
2017-05-25T06:57:27.191Z,22.4
2017-05-25T06:58:07.720Z,22.37
2017-05-25T06:58:48.197Z,22.31
2017-05-25T06:59:28.671Z,22.55
2017-05-25T07:00:09.167Z,22.92
2017-05-25T07:00:50.452Z,22.85
2017-05-25T07:01:30.949Z,22.86
2017-05-25T07:02:11.434Z,23.15
2017-05-25T07:02:51.922Z,22.45
2017-05-25T07:03:32.415Z,22.51
2017-05-25T07:04:12.912Z,22.67
2017-05-25T07:04:53.403Z,22.62
2017-05-25T07:05:34.708Z,22.62
2017-05-25T07:06:15.791Z,22.97
2017-05-25T07:08:28.521Z,23.42
2017-05-25T07:09:09.011Z,22.82
2017-05-25T07:09:49.506Z,22.65
2017-05-25T07:10:29.999Z,22.65
2017-05-25T07:11:10.490Z,22.92
2017-05-25T07:11:50.986Z,23.35
2017-05-25T07:12:31.476Z,23.43
2017-05-25T07:13:11.972Z,23.6
2017-05-25T07:13:52.470Z,23.73
2017-05-25T07:14:32.961Z,23.28
2017-05-25T07:15:13.452Z,23.57
2017-05-25T07:15:53.944Z,23.33
2017-05-25T07:16:34.438Z,23.28
2017-05-25T07:17:14.946Z,23.65
2017-05-25T07:17:55.452Z,24.13
2017-05-25T07:18:36.571Z,24.15
2017-05-25T07:19:17.075Z,23.83
2017-05-25T07:19:57.559Z,23.7
2017-05-25T07:20:38.064Z,23.28
2017-05-25T07:21:18.561Z,23.25
2017-05-25T07:21:59.054Z,23.05
2017-05-25T07:22:40.210Z,23.36
2017-05-25T07:23:20.700Z,23.93
2017-05-25T07:24:01.200Z,24.45
2017-05-25T07:24:41.686Z,24.2
2017-05-25T07:25:22.175Z,23.83
2017-05-25T07:26:02.671Z,23.84
2017-05-25T07:26:43.171Z,24
2017-05-25T07:27:23.677Z,24.22
2017-05-25T07:28:04.172Z,24.15
2017-05-25T07:28:44.669Z,23.54
2017-05-25T07:29:25.168Z,23.91
2017-05-25T07:30:05.648Z,23.8
2017-05-25T07:30:46.144Z,23.85
2017-05-25T07:31:26.648Z,24.34
2017-05-25T07:32:08.004Z,24.65
2017-05-25T07:32:48.503Z,24.57
2017-05-25T07:33:29.000Z,24.31
2017-05-25T07:34:09.486Z,24.4
2017-05-25T07:34:49.985Z,24.42
2017-05-25T07:35:31.217Z,24.65
2017-05-25T07:36:11.706Z,24.61
2017-05-25T07:36:52.210Z,24.32
2017-05-25T07:37:32.720Z,24.6
2017-05-25T07:38:13.187Z,24.88
2017-05-25T07:38:53.683Z,24.83
2017-05-25T07:39:34.179Z,24.42
2017-05-25T07:40:14.659Z,23.63
2017-05-25T07:40:55.145Z,23.42
2017-05-25T07:41:36.580Z,23.35
2017-05-25T07:42:17.091Z,23.63
2017-05-25T07:42:57.582Z,24.34
2017-05-25T07:43:38.084Z,24.77
2017-05-25T07:44:18.566Z,24.99
2017-05-25T07:44:59.064Z,25.23
2017-05-25T07:45:39.577Z,25.64
2017-05-25T07:46:20.054Z,25.33
2017-05-25T07:47:00.542Z,25.17
2017-05-25T07:47:41.048Z,24.8
2017-05-25T07:48:22.421Z,24.85
2017-05-25T07:49:02.921Z,25.13
2017-05-25T07:49:43.414Z,24.87
2017-05-25T07:50:23.901Z,25.06
2017-05-25T07:51:04.395Z,24.84
2017-05-25T07:51:45.432Z,24.71
2017-05-25T07:52:25.896Z,24.08
2017-05-25T07:53:06.385Z,24.06
2017-05-25T07:53:46.875Z,24.09
2017-05-25T07:54:27.372Z,24.45
2017-05-25T07:55:08.838Z,24.55
2017-05-25T07:55:49.316Z,24.96
2017-05-25T07:56:29.809Z,25.55
2017-05-25T07:57:12.103Z,25.54
2017-05-25T07:57:53.595Z,25.7
2017-05-25T07:58:34.593Z,25.8
2017-05-25T07:59:15.088Z,25.14
2017-05-25T07:59:56.240Z,24.95
2017-05-25T08:00:36.719Z,25.61
2017-05-25T08:01:17.209Z,26.1
2017-05-25T08:01:57.704Z,25.64
2017-05-25T08:02:38.741Z,25.36
2017-05-25T08:03:19.233Z,25.13
2017-05-25T08:03:59.756Z,25.2
2017-05-25T08:04:40.245Z,25.75
2017-05-25T08:05:20.742Z,25.91
2017-05-25T08:06:01.238Z,26.52
2017-05-25T08:06:41.733Z,26.88
2017-05-25T08:07:22.234Z,26.44
2017-05-25T08:08:02.718Z,27
2017-05-25T08:08:43.209Z,26.6
2017-05-25T08:09:23.689Z,26.57
2017-05-25T08:10:04.168Z,25.88
2017-05-25T08:10:44.660Z,26.54
2017-05-25T08:11:25.173Z,26.62
2017-05-25T08:12:05.671Z,27.02
2017-05-25T08:12:46.164Z,26.99
2017-05-25T08:13:26.657Z,26.67
2017-05-25T08:14:07.147Z,26.35
2017-05-25T08:14:47.652Z,26.55
2017-05-25T08:15:28.137Z,27.03
2017-05-25T08:16:09.520Z,27.72
2017-05-25T08:16:50.000Z,28.21
2017-05-25T08:17:30.502Z,28.3
2017-05-25T08:18:10.988Z,28.37
2017-05-25T08:18:51.548Z,28.15
2017-05-25T08:19:32.080Z,26.6
2017-05-25T08:20:12.626Z,26.58
2017-05-25T08:20:53.200Z,26.06
2017-05-25T08:21:33.687Z,25.45
2017-05-25T08:22:14.184Z,24.78
2017-05-25T08:22:54.670Z,24.45
2017-05-25T08:23:35.172Z,23.97
2017-05-25T08:24:15.698Z,24.55
2017-05-25T08:24:56.229Z,25.17
2017-05-25T08:25:36.737Z,25.91
2017-05-25T08:26:17.231Z,26.37
2017-05-25T08:26:57.730Z,25.92
2017-05-25T08:27:38.197Z,24.96
2017-05-25T08:28:18.680Z,24.57
2017-05-25T08:28:59.184Z,24.95
2017-05-25T08:29:39.665Z,25.67
2017-05-25T08:30:20.166Z,26.33
2017-05-25T08:31:00.662Z,26.07
2017-05-25T08:31:41.171Z,25.77
2017-05-25T08:32:21.669Z,26.06
2017-05-25T08:33:02.181Z,26.92
2017-05-25T08:33:42.669Z,27.28
2017-05-25T08:34:23.157Z,27.47
2017-05-25T08:35:03.650Z,28
2017-05-25T08:35:44.139Z,27.43
2017-05-25T08:36:24.629Z,26.73
2017-05-25T08:37:05.123Z,26.58
2017-05-25T08:37:45.605Z,26.55
2017-05-25T08:38:26.104Z,27.34
2017-05-25T08:39:06.603Z,27.06
2017-05-25T08:39:47.077Z,27.37
2017-05-25T08:40:27.580Z,27.57
2017-05-25T08:41:08.077Z,28.33
2017-05-25T08:41:48.562Z,29.27
2017-05-25T08:42:29.038Z,29.37
2017-05-25T08:43:09.536Z,29.49
2017-05-25T08:43:50.031Z,29.18
2017-05-25T08:44:30.533Z,29.15
2017-05-25T08:45:11.030Z,29.27
2017-05-25T08:45:52.456Z,29.49
2017-05-25T08:46:32.958Z,30.11
2017-05-25T08:47:13.452Z,30.89
2017-05-25T08:47:53.947Z,30.94
2017-05-25T08:48:34.969Z,31.68
2017-05-25T08:49:15.445Z,31.36
2017-05-25T08:49:55.942Z,30.75
2017-05-25T08:50:36.440Z,29.46
2017-05-25T08:51:16.929Z,29.09
2017-05-25T08:51:57.424Z,27.75
2017-05-25T08:52:37.912Z,26.02
2017-05-25T08:53:18.403Z,25.57
2017-05-25T08:53:58.900Z,26.37
2017-05-25T08:54:39.383Z,26.7